createdAt,value
2019-01-29T00:00:35.844Z,99146.34
2019-01-29T00:03:05.958Z,99150.34
2019-01-29T00:05:34.326Z,99155.43
2019-01-29T00:08:02.773Z,99149.45
2019-01-29T00:10:31.147Z,99155.66
2019-01-29T00:12:59.521Z,99157.05
2019-01-29T00:15:27.896Z,99162.05
2019-01-29T00:17:56.283Z,99167.16
2019-01-29T00:20:24.650Z,99167.42
2019-01-29T00:22:53.025Z,99167.64
2019-01-29T00:25:21.400Z,99176.08
2019-01-29T00:27:49.781Z,99169.95
2019-01-29T00:30:18.484Z,99182.19
2019-01-29T00:32:46.901Z,99186.09
2019-01-29T00:35:15.301Z,99182.71
2019-01-29T00:37:43.678Z,99188.74
2019-01-29T00:40:14.280Z,99186.50
2019-01-29T00:42:42.666Z,99185.58
2019-01-29T00:45:16.057Z,99194.38
2019-01-29T00:47:44.433Z,99197.27
2019-01-29T00:50:15.042Z,99199.35
2019-01-29T00:52:43.759Z,99195.23
2019-01-29T00:55:14.471Z,99194.94
2019-01-29T00:57:43.016Z,99197.98
2019-01-29T01:00:20.004Z,99207.26
2019-01-29T01:02:48.381Z,99207.82
2019-01-29T01:05:17.190Z,99209.03
2019-01-29T01:07:45.738Z,99210.80
2019-01-29T01:10:16.641Z,99217.87
2019-01-29T01:12:45.195Z,99213.88
2019-01-29T01:15:14.402Z,99220.64
2019-01-29T01:17:42.849Z,99220.59
2019-01-29T01:20:14.003Z,99228.69
2019-01-29T01:22:50.381Z,99230.20
2019-01-29T01:25:13.751Z,99229.84
2019-01-29T01:27:42.125Z,99238.17
2019-01-29T01:30:50.416Z,99236.93
2019-01-29T01:33:18.795Z,99245.73
2019-01-29T01:36:06.345Z,99239.59
2019-01-29T01:38:34.721Z,99247.02
2019-01-29T01:41:03.104Z,99244.98
2019-01-29T01:43:50.829Z,99242.59
2019-01-29T01:49:06.647Z,99251.12
2019-01-29T01:51:35.021Z,99251.44
2019-01-29T01:54:22.695Z,99260.59
2019-01-29T01:57:10.185Z,99259.55
2019-01-29T01:59:57.923Z,99259.77
2019-01-29T02:02:26.302Z,99269.72
2019-01-29T02:05:13.802Z,99273.35
2019-01-29T02:07:42.163Z,99270.02
2019-01-29T02:10:50.450Z,99267.84
2019-01-29T02:13:38.077Z,99271.84
2019-01-29T02:18:53.889Z,99270.90
2019-01-29T02:22:02.176Z,99273.45
2019-01-29T02:24:49.676Z,99269.72
2019-01-29T02:27:37.166Z,99277.04
2019-01-29T02:30:24.976Z,99276.47
2019-01-29T02:32:53.333Z,99282.88
2019-01-29T02:38:16.066Z,99280.12
2019-01-29T02:40:44.445Z,99286.14
2019-01-29T02:43:12.815Z,99286.83
2019-01-29T02:46:00.437Z,99289.63
2019-01-29T02:48:48.057Z,99287.48
2019-01-29T02:51:35.549Z,99284.94
2019-01-29T02:56:58.973Z,99290.34
2019-01-29T02:59:27.354Z,99291.94
2019-01-29T03:04:24.408Z,99295.73
2019-01-29T03:06:52.770Z,99293.55
2019-01-29T03:09:21.150Z,99298.13
2019-01-29T03:11:49.519Z,99307.92
2019-01-29T03:14:17.881Z,99316.26
2019-01-29T03:16:46.259Z,99318.89
2019-01-29T03:19:14.619Z,99323.73
2019-01-29T03:21:44.298Z,99321.64
2019-01-29T03:24:12.646Z,99324.50
2019-01-29T03:26:41.025Z,99327.73
2019-01-29T03:29:09.736Z,99330.91
2019-01-29T03:31:38.126Z,99338.52
2019-01-29T03:34:06.479Z,99334.64
2019-01-29T03:36:34.919Z,99338.64
2019-01-29T03:39:04.461Z,99342.39
2019-01-29T03:41:32.840Z,99348.20
2019-01-29T03:44:01.210Z,99348.38
2019-01-29T03:46:29.590Z,99349.50
2019-01-29T03:48:57.975Z,99350.89
2019-01-29T03:51:26.341Z,99348.52
2019-01-29T03:53:54.702Z,99346.19
2019-01-29T03:56:23.083Z,99349.35
2019-01-29T03:58:51.449Z,99347.48
2019-01-29T04:01:19.830Z,99348.66
2019-01-29T04:03:48.206Z,99351.07
2019-01-29T04:06:16.590Z,99354.22
2019-01-29T04:08:44.958Z,99360.72
2019-01-29T04:11:13.338Z,99362.42
2019-01-29T04:13:41.737Z,99358.20
2019-01-29T04:16:10.185Z,99355.16
2019-01-29T04:18:38.562Z,99359.75
2019-01-29T04:21:06.940Z,99355.22
2019-01-29T04:23:35.305Z,99353.84
2019-01-29T04:26:03.687Z,99356.79
2019-01-29T04:28:32.052Z,99361.00
2019-01-29T04:31:00.438Z,99368.13
2019-01-29T04:33:28.816Z,99363.71
2019-01-29T04:35:57.192Z,99371.64
2019-01-29T04:38:25.579Z,99376.07
2019-01-29T04:40:53.963Z,99369.25
2019-01-29T04:43:22.435Z,99379.89
2019-01-29T04:45:50.824Z,99376.91
2019-01-29T04:48:19.197Z,99376.63
2019-01-29T04:50:47.595Z,99380.03
2019-01-29T04:53:15.967Z,99384.72
2019-01-29T04:55:44.429Z,99384.45
2019-01-29T04:58:12.828Z,99385.59
2019-01-29T05:00:41.186Z,99390.79
2019-01-29T05:03:09.563Z,99392.13
2019-01-29T05:05:37.933Z,99392.41
2019-01-29T05:08:06.314Z,99397.75
2019-01-29T05:10:34.671Z,99390.33
2019-01-29T05:13:03.055Z,99389.31
2019-01-29T05:15:31.427Z,99384.19
2019-01-29T05:17:59.805Z,99391.03
2019-01-29T05:20:28.185Z,99394.80
2019-01-29T05:22:56.557Z,99392.27
2019-01-29T05:25:24.930Z,99391.98
2019-01-29T05:27:53.301Z,99394.70
2019-01-29T05:30:23.623Z,99394.44
2019-01-29T05:32:52.009Z,99388.22
2019-01-29T05:35:20.559Z,99391.25
2019-01-29T05:37:48.938Z,99391.79
2019-01-29T05:40:19.646Z,99390.34
2019-01-29T05:42:48.058Z,99393.55
2019-01-29T05:45:18.133Z,99406.30
2019-01-29T05:47:46.581Z,99405.98
2019-01-29T05:50:15.889Z,99409.03
2019-01-29T05:52:44.441Z,99406.41
2019-01-29T05:55:14.485Z,99409.35
2019-01-29T05:57:43.022Z,99414.67
2019-01-29T06:00:20.550Z,99414.03
2019-01-29T06:02:49.205Z,99420.38
2019-01-29T06:05:17.953Z,99428.97
2019-01-29T06:07:46.335Z,99435.53
2019-01-29T06:10:16.448Z,99433.53
2019-01-29T06:12:45.918Z,99432.65
2019-01-29T06:15:16.962Z,99437.39
2019-01-29T06:17:45.356Z,99434.44
2019-01-29T06:20:18.364Z,99442.29
2019-01-29T06:22:46.254Z,99441.58
2019-01-29T06:25:15.263Z,99441.06
2019-01-29T06:27:43.719Z,99445.37
2019-01-29T06:30:15.153Z,99446.31
2019-01-29T06:32:43.519Z,99450.59
2019-01-29T06:35:14.337Z,99450.59
2019-01-29T06:37:42.714Z,99442.27
2019-01-29T06:40:14.089Z,99440.69
2019-01-29T06:42:42.468Z,99441.84
2019-01-29T06:45:13.486Z,99450.70
2019-01-29T06:47:42.031Z,99445.89
2019-01-29T06:50:15.991Z,99448.97
2019-01-29T06:52:44.631Z,99449.70
2019-01-29T06:55:15.753Z,99447.25
2019-01-29T06:57:44.118Z,99458.14
2019-01-29T07:00:15.601Z,99457.73
2019-01-29T07:02:44.101Z,99457.27
2019-01-29T07:05:12.851Z,99451.27
2019-01-29T07:07:41.221Z,99462.69
2019-01-29T07:10:12.709Z,99466.63
2019-01-29T07:12:41.160Z,99467.23
2019-01-29T07:15:17.325Z,99470.45
2019-01-29T07:17:47.072Z,99472.53
2019-01-29T07:20:15.628Z,99469.92
2019-01-29T07:22:43.994Z,99464.74
2019-01-29T07:25:12.713Z,99468.07
2019-01-29T07:27:41.083Z,99470.21
2019-01-29T07:30:12.762Z,99468.65
2019-01-29T07:32:41.129Z,99474.38
2019-01-29T07:35:09.580Z,99468.44
2019-01-29T07:37:37.948Z,99466.77
2019-01-29T07:40:09.189Z,99473.83
2019-01-29T07:42:37.808Z,99476.41
2019-01-29T07:45:09.237Z,99475.31
2019-01-29T07:47:37.885Z,99478.56
2019-01-29T07:50:08.904Z,99471.43
2019-01-29T07:52:37.271Z,99475.56
2019-01-29T07:55:08.228Z,99475.83
2019-01-29T07:57:36.592Z,99472.44
2019-01-29T08:00:16.486Z,99468.27
2019-01-29T08:02:44.923Z,99471.12
2019-01-29T08:05:13.362Z,99475.56
2019-01-29T08:07:41.729Z,99480.36
2019-01-29T08:10:15.145Z,99483.73
2019-01-29T08:12:43.515Z,99487.12
2019-01-29T08:15:20.089Z,99486.45
2019-01-29T08:17:48.455Z,99493.73
2019-01-29T08:20:18.272Z,99487.59
2019-01-29T08:22:46.634Z,99495.79
2019-01-29T08:25:15.258Z,99498.28
2019-01-29T08:27:43.715Z,99501.00
2019-01-29T08:30:19.463Z,99505.95
2019-01-29T08:32:47.831Z,99506.84
2019-01-29T08:35:17.649Z,99516.79
2019-01-29T08:37:46.032Z,99514.49
2019-01-29T08:40:15.838Z,99522.25
2019-01-29T08:42:44.200Z,99520.36
2019-01-29T08:45:17.191Z,99522.94
2019-01-29T08:47:45.730Z,99525.55
2019-01-29T08:50:17.318Z,99520.95
2019-01-29T08:52:45.685Z,99522.22
2019-01-29T08:55:14.128Z,99525.02
2019-01-29T08:57:42.509Z,99524.42
2019-01-29T09:00:14.166Z,99530.19
2019-01-29T09:02:42.531Z,99535.72
2019-01-29T09:05:50.816Z,99535.55
2019-01-29T09:08:19.187Z,99532.00
2019-01-29T09:10:47.576Z,99532.00
2019-01-29T09:13:16.008Z,99538.55
2019-01-29T09:16:03.506Z,99534.88
2019-01-29T09:18:31.881Z,99533.33
2019-01-29T09:21:40.171Z,99535.48
2019-01-29T09:24:08.541Z,99540.39
2019-01-29T09:26:36.919Z,99536.27
2019-01-29T09:29:06.830Z,99534.49
2019-01-29T09:31:35.216Z,99531.20
2019-01-29T09:34:03.589Z,99524.80
2019-01-29T09:36:33.924Z,99529.04
2019-01-29T09:39:02.066Z,99527.73
2019-01-29T09:41:30.436Z,99522.76
2019-01-29T09:43:58.807Z,99525.58
2019-01-29T09:46:27.185Z,99527.52
2019-01-29T09:48:55.553Z,99530.19
2019-01-29T09:51:23.928Z,99526.25
2019-01-29T09:53:52.362Z,99530.08
2019-01-29T09:56:20.682Z,99525.28
2019-01-29T09:58:49.058Z,99528.90
2019-01-29T10:01:17.443Z,99519.91
2019-01-29T10:03:45.805Z,99521.81
2019-01-29T10:06:14.182Z,99522.16
2019-01-29T10:08:42.550Z,99517.80
2019-01-29T10:11:10.931Z,99518.66
2019-01-29T10:13:39.304Z,99519.13
2019-01-29T10:16:07.694Z,99515.72
2019-01-29T10:18:36.059Z,99518.08
2019-01-29T10:21:05.262Z,99516.05
2019-01-29T10:23:33.633Z,99518.98
2019-01-29T10:26:01.996Z,99512.72
2019-01-29T10:28:30.370Z,99512.00
2019-01-29T10:30:58.763Z,99512.03
2019-01-29T10:33:27.146Z,99521.54
2019-01-29T10:35:55.809Z,99519.68
2019-01-29T10:38:24.185Z,99509.84
2019-01-29T10:40:52.555Z,99507.16
2019-01-29T10:43:20.939Z,99509.48
2019-01-29T10:45:49.309Z,99506.37
2019-01-29T10:48:17.695Z,99502.72
2019-01-29T10:50:46.247Z,99500.66
2019-01-29T10:53:14.611Z,99494.42
2019-01-29T10:55:47.362Z,99490.00
2019-01-29T10:58:13.163Z,99483.80
2019-01-29T11:00:41.529Z,99492.42
2019-01-29T11:03:10.546Z,99488.48
2019-01-29T11:05:39.140Z,99493.17
2019-01-29T11:08:07.760Z,99494.84
2019-01-29T11:10:36.129Z,99502.25
2019-01-29T11:13:07.332Z,99497.67
2019-01-29T11:15:40.883Z,99489.92
2019-01-29T11:18:11.897Z,99498.51
2019-01-29T11:20:41.290Z,99489.69
2019-01-29T11:23:09.669Z,99491.16
2019-01-29T11:25:38.114Z,99484.78
2019-01-29T11:28:06.494Z,99477.98
2019-01-29T11:30:35.514Z,99481.55
2019-01-29T11:33:04.346Z,99475.09
2019-01-29T11:35:32.787Z,99474.25
2019-01-29T11:38:01.164Z,99474.05
2019-01-29T11:40:31.946Z,99476.77
2019-01-29T11:43:00.695Z,99479.16
2019-01-29T11:45:31.478Z,99475.97
2019-01-29T11:47:59.874Z,99478.30
2019-01-29T11:50:28.254Z,99483.19
2019-01-29T11:52:56.678Z,99474.00
2019-01-29T11:57:52.374Z,99475.84
2019-01-29T12:00:25.130Z,99471.34
2019-01-29T12:02:53.769Z,99468.99
2019-01-29T12:05:22.132Z,99470.88
2019-01-29T12:07:50.496Z,99465.11
2019-01-29T12:10:18.890Z,99461.32
2019-01-29T12:12:47.445Z,99462.84
2019-01-29T12:15:20.324Z,99455.52
2019-01-29T12:17:48.690Z,99453.66
2019-01-29T12:20:18.604Z,99449.34
2019-01-29T12:22:47.140Z,99453.73
2019-01-29T12:25:15.764Z,99452.32
2019-01-29T12:27:44.132Z,99450.89
2019-01-29T12:30:24.570Z,99445.02
2019-01-29T12:32:53.187Z,99444.13
2019-01-29T12:35:21.570Z,99445.13
2019-01-29T12:37:49.945Z,99447.21
2019-01-29T12:40:18.391Z,99436.55
2019-01-29T12:42:46.765Z,99438.40
2019-01-29T12:45:17.497Z,99439.77
2019-01-29T12:47:46.010Z,99441.19
2019-01-29T12:50:31.682Z,99439.33
2019-01-29T12:53:10.483Z,99442.64
2019-01-29T12:55:38.935Z,99436.09
2019-01-29T12:58:07.944Z,99436.81
2019-01-29T13:00:38.034Z,99439.44
2019-01-29T13:03:06.579Z,99439.45
2019-01-29T13:05:34.957Z,99441.70
2019-01-29T13:08:03.518Z,99440.73
2019-01-29T13:10:31.917Z,99443.08
2019-01-29T13:13:00.381Z,99440.39
2019-01-29T13:15:33.121Z,99441.11
2019-01-29T13:18:02.029Z,99439.84
2019-01-29T13:20:30.849Z,99442.61
2019-01-29T13:22:59.218Z,99438.18
2019-01-29T13:25:27.612Z,99447.02
2019-01-29T13:27:55.982Z,99445.02
2019-01-29T13:30:32.722Z,99436.78
2019-01-29T13:33:01.271Z,99432.08
2019-01-29T13:35:32.028Z,99429.23
2019-01-29T13:38:00.403Z,99429.44
2019-01-29T13:40:29.123Z,99427.58
2019-01-29T13:42:57.498Z,99426.46
2019-01-29T13:45:26.133Z,99425.52
2019-01-29T13:47:54.456Z,99429.20
2019-01-29T13:50:34.148Z,99423.64
2019-01-29T13:53:02.513Z,99427.84
2019-01-29T13:55:30.898Z,99420.20
2019-01-29T13:57:59.378Z,99416.20
2019-01-29T14:00:32.911Z,99413.25
2019-01-29T14:03:01.920Z,99409.27
2019-01-29T14:05:30.616Z,99407.23
2019-01-29T14:07:58.983Z,99405.22
2019-01-29T14:10:27.605Z,99397.55
2019-01-29T14:12:57.018Z,99404.84
2019-01-29T14:15:33.884Z,99398.28
2019-01-29T14:18:02.425Z,99401.26
2019-01-29T14:20:30.804Z,99398.47
2019-01-29T14:22:59.177Z,99393.17
2019-01-29T14:25:27.728Z,99400.48
2019-01-29T14:27:56.098Z,99397.10
2019-01-29T14:30:28.866Z,99402.62
2019-01-29T14:32:57.406Z,99396.75
2019-01-29T14:35:25.853Z,99396.59
2019-01-29T14:38:12.534Z,99396.14
2019-01-29T14:40:40.921Z,99394.81
2019-01-29T14:43:14.959Z,99398.08
2019-01-29T14:45:43.354Z,99400.27
2019-01-29T14:48:11.719Z,99405.15
2019-01-29T14:50:40.104Z,99404.59
2019-01-29T14:53:08.472Z,99401.13
2019-01-29T14:55:36.860Z,99399.20
2019-01-29T14:58:05.906Z,99404.70
2019-01-29T15:00:37.574Z,99401.83
2019-01-29T15:03:06.048Z,99395.54
2019-01-29T15:05:34.522Z,99396.64
2019-01-29T15:08:02.888Z,99390.97
2019-01-29T15:10:32.202Z,99388.29
2019-01-29T15:13:00.859Z,99391.34
2019-01-29T15:15:31.741Z,99385.48
2019-01-29T15:18:01.762Z,99382.63
2019-01-29T15:20:30.134Z,99390.11
2019-01-29T15:22:58.585Z,99383.83
2019-01-29T15:25:26.962Z,99385.13
2019-01-29T15:28:14.687Z,99383.42
2019-01-29T15:31:22.993Z,99378.54
2019-01-29T15:33:51.373Z,99384.87
2019-01-29T15:36:19.759Z,99382.72
2019-01-29T15:38:48.137Z,99369.48
2019-01-29T15:41:16.526Z,99369.95
2019-01-29T15:44:04.019Z,99368.92
2019-01-29T15:46:32.409Z,99366.30
2019-01-29T15:49:00.788Z,99366.16
2019-01-29T15:51:29.178Z,99365.53
2019-01-29T15:53:57.548Z,99360.52
2019-01-29T15:56:26.403Z,99361.33
2019-01-29T15:58:56.023Z,99358.20
2019-01-29T16:01:43.660Z,99361.64
2019-01-29T16:04:31.344Z,99351.20
2019-01-29T16:09:53.385Z,99350.78
2019-01-29T16:12:41.014Z,99346.20
2019-01-29T16:15:28.999Z,99350.76
2019-01-29T16:18:16.500Z,99347.99
2019-01-29T16:21:04.126Z,99344.84
2019-01-29T16:23:51.628Z,99347.33
2019-01-29T16:26:20.014Z,99342.28
2019-01-29T16:29:07.502Z,99338.31
2019-01-29T16:31:35.895Z,99340.70
2019-01-29T16:37:12.341Z,99332.64
2019-01-29T16:39:59.963Z,99328.06
2019-01-29T16:45:02.168Z,99318.44
2019-01-29T16:47:30.559Z,99315.23
2019-01-29T16:49:58.931Z,99317.64
2019-01-29T16:52:27.337Z,99321.16
2019-01-29T16:55:14.962Z,99313.83
2019-01-29T16:57:43.349Z,99307.24
2019-01-29T17:00:51.642Z,99311.09
2019-01-29T17:03:20.030Z,99310.85
2019-01-29T17:06:07.524Z,99309.17
2019-01-29T17:08:35.913Z,99314.34
2019-01-29T17:16:46.382Z,99308.81
2019-01-29T17:19:14.771Z,99305.36
2019-01-29T17:22:02.396Z,99303.53
2019-01-29T17:24:49.893Z,99302.59
2019-01-29T17:30:45.692Z,99299.62
2019-01-29T17:33:53.987Z,99293.41
2019-01-29T17:36:22.360Z,99299.61
2019-01-29T17:39:09.999Z,99297.77
2019-01-29T17:41:38.369Z,99304.12
2019-01-29T17:44:46.668Z,99297.16
2019-01-29T17:47:34.296Z,99296.69
2019-01-29T17:50:02.678Z,99295.69
2019-01-29T17:52:31.059Z,99291.94
2019-01-29T17:54:59.452Z,99291.86
2019-01-29T17:57:27.834Z,99299.23
2019-01-29T17:59:56.214Z,99292.54
2019-01-29T18:02:24.617Z,99290.92
2019-01-29T18:04:53.004Z,99294.31
2019-01-29T18:07:21.422Z,99287.48
2019-01-29T18:09:49.807Z,99282.96
2019-01-29T18:12:18.288Z,99286.95
2019-01-29T18:14:46.670Z,99278.77
2019-01-29T18:17:15.044Z,99282.36
2019-01-29T18:19:43.422Z,99275.22
2019-01-29T18:22:11.796Z,99271.02
2019-01-29T18:24:40.179Z,99274.08
2019-01-29T18:27:08.563Z,99270.55
2019-01-29T18:29:36.951Z,99269.14
2019-01-29T18:32:05.435Z,99269.34
2019-01-29T18:34:33.799Z,99268.09
2019-01-29T18:37:02.277Z,99272.83
2019-01-29T18:39:30.659Z,99267.41
2019-01-29T18:41:59.067Z,99269.50
2019-01-29T18:44:27.467Z,99266.33
2019-01-29T18:46:55.848Z,99262.88
2019-01-29T18:49:24.223Z,99260.19
2019-01-29T18:51:52.595Z,99259.41
2019-01-29T18:54:44.494Z,99254.09
2019-01-29T18:57:32.223Z,99249.20
2019-01-29T19:02:54.192Z,99244.19
2019-01-29T19:06:02.494Z,99248.30
2019-01-29T19:08:50.161Z,99240.91
2019-01-29T19:11:37.789Z,99236.80
2019-01-29T19:14:06.175Z,99239.81
2019-01-29T19:16:53.663Z,99235.80
2019-01-29T19:19:22.052Z,99237.20
2019-01-29T19:21:50.428Z,99241.48
2019-01-29T19:24:18.813Z,99233.45
2019-01-29T19:26:47.245Z,99233.11
2019-01-29T19:29:15.619Z,99231.45
2019-01-29T19:31:44.007Z,99234.42
2019-01-29T19:34:12.379Z,99238.22
2019-01-29T19:36:40.770Z,99235.00
2019-01-29T19:39:09.414Z,99234.32
2019-01-29T19:41:37.865Z,99231.81
2019-01-29T19:44:06.566Z,99229.06
2019-01-29T19:46:35.156Z,99232.50
2019-01-29T19:49:03.784Z,99234.33
2019-01-29T19:51:32.402Z,99226.09
2019-01-29T19:54:00.859Z,99232.09
2019-01-29T19:56:29.239Z,99228.49
2019-01-29T19:58:57.619Z,99225.64
2019-01-29T20:01:26.007Z,99223.60
2019-01-29T20:03:54.584Z,99227.77
2019-01-29T20:06:23.196Z,99228.91
2019-01-29T20:08:51.737Z,99226.67
2019-01-29T20:11:20.208Z,99232.97
2019-01-29T20:13:48.558Z,99233.30
2019-01-29T20:16:16.943Z,99228.24
2019-01-29T20:18:45.347Z,99228.55
2019-01-29T20:21:13.733Z,99227.72
2019-01-29T20:23:42.208Z,99224.13
2019-01-29T20:26:10.671Z,99225.41
2019-01-29T20:28:42.540Z,99226.82
2019-01-29T20:31:09.181Z,99224.23
2019-01-29T20:33:37.554Z,99222.63
2019-01-29T20:36:05.947Z,99217.66
2019-01-29T20:38:35.272Z,99222.14
2019-01-29T20:41:03.791Z,99219.59
2019-01-29T20:43:32.503Z,99215.23
2019-01-29T20:46:00.884Z,99218.77
2019-01-29T20:48:29.272Z,99208.82
2019-01-29T20:50:57.657Z,99209.72
2019-01-29T20:53:26.129Z,99207.48
2019-01-29T20:55:54.515Z,99206.95
2019-01-29T20:58:22.886Z,99205.28
2019-01-29T21:00:51.267Z,99200.52
2019-01-29T21:03:19.649Z,99199.55
2019-01-29T21:05:48.335Z,99198.59
2019-01-29T21:08:16.898Z,99194.32
2019-01-29T21:10:45.271Z,99196.48
2019-01-29T21:13:13.653Z,99188.44
2019-01-29T21:15:42.090Z,99193.17
2019-01-29T21:18:10.477Z,99196.03
2019-01-29T21:20:38.850Z,99190.70
2019-01-29T21:23:07.240Z,99190.39
2019-01-29T21:25:35.607Z,99189.70
2019-01-29T21:28:04.272Z,99185.08
2019-01-29T21:30:34.989Z,99185.48
2019-01-29T21:33:03.363Z,99183.81
2019-01-29T21:35:31.840Z,99177.17
2019-01-29T21:38:00.217Z,99177.63
2019-01-29T21:40:28.677Z,99174.16
2019-01-29T21:42:57.060Z,99169.47
2019-01-29T21:45:25.435Z,99167.64
2019-01-29T21:47:56.252Z,99165.30
2019-01-29T21:50:26.818Z,99155.58
2019-01-29T21:52:55.284Z,99161.72
2019-01-29T21:55:23.645Z,99160.48
2019-01-29T21:57:52.031Z,99165.88
2019-01-29T22:00:35.226Z,99158.40
2019-01-29T22:03:04.250Z,99156.47
2019-01-29T22:05:32.635Z,99157.09
2019-01-29T22:08:01.054Z,99154.61
2019-01-29T22:10:29.452Z,99153.38
2019-01-29T22:12:57.908Z,99151.50
2019-01-29T22:15:26.456Z,99159.30
2019-01-29T22:17:54.840Z,99158.22
2019-01-29T22:20:24.451Z,99154.94
2019-01-29T22:22:53.266Z,99152.19
2019-01-29T22:25:23.022Z,99146.98
2019-01-29T22:27:51.403Z,99144.78
2019-01-29T22:30:27.997Z,99143.80
2019-01-29T22:32:56.428Z,99137.75
2019-01-29T22:35:24.936Z,99142.13
2019-01-29T22:37:53.348Z,99136.16
2019-01-29T22:40:24.312Z,99135.16
2019-01-29T22:42:52.767Z,99135.47
2019-01-29T22:45:21.208Z,99130.27
2019-01-29T22:47:49.606Z,99129.82
2019-01-29T22:50:26.719Z,99130.85
2019-01-29T22:52:55.108Z,99123.35
2019-01-29T22:55:23.574Z,99117.64
2019-01-29T22:57:52.040Z,99117.87
2019-01-29T23:00:51.935Z,99115.77
2019-01-29T23:03:26.046Z,99112.59
2019-01-29T23:06:02.785Z,99108.80
2019-01-29T23:08:31.165Z,99108.17
2019-01-29T23:11:01.111Z,99108.34
2019-01-29T23:13:29.491Z,99107.02
2019-01-29T23:15:57.869Z,99101.83
2019-01-29T23:18:26.507Z,99101.11
2019-01-29T23:20:54.881Z,99103.70
2019-01-29T23:23:23.264Z,99105.26
2019-01-29T23:25:51.633Z,99103.59
2019-01-29T23:28:20.107Z,99097.00
2019-01-29T23:30:48.487Z,99096.14
2019-01-29T23:33:16.859Z,99091.94
2019-01-29T23:35:45.248Z,99096.00
2019-01-29T23:38:13.623Z,99096.22
2019-01-29T23:40:42.017Z,99093.61
2019-01-29T23:43:12.440Z,99089.02
2019-01-29T23:45:40.501Z,99083.48
2019-01-29T23:48:08.948Z,99082.04
2019-01-29T23:50:37.351Z,99079.15
2019-01-29T23:53:05.717Z,99079.84
2019-01-29T23:55:34.101Z,99073.84
2019-01-29T23:58:02.489Z,99068.35
